sensor_id;sensor_type;location;lat;lon;timestamp;P1;durP1;ratioP1;P2;durP2;ratioP2
22024;SDS011;11176;51.448;6.650;2022-08-20T00:01:05;13.45;;;8.73;;
22024;SDS011;11176;51.448;6.650;2022-08-20T00:03:34;12.07;;;7.75;;
22024;SDS011;11176;51.448;6.650;2022-08-20T00:08:39;12.10;;;8.52;;
22024;SDS011;11176;51.448;6.650;2022-08-20T00:11:07;11.15;;;7.70;;
22024;SDS011;11176;51.448;6.650;2022-08-20T00:13:38;16.80;;;9.38;;
22024;SDS011;11176;51.448;6.650;2022-08-20T00:16:14;14.90;;;8.93;;
22024;SDS011;11176;51.448;6.650;2022-08-20T00:18:42;15.20;;;9.15;;
22024;SDS011;11176;51.448;6.650;2022-08-20T00:21:12;13.98;;;8.77;;
22024;SDS011;11176;51.448;6.650;2022-08-20T00:23:45;15.52;;;9.07;;
22024;SDS011;11176;51.448;6.650;2022-08-20T00:26:13;16.75;;;10.00;;
22024;SDS011;11176;51.448;6.650;2022-08-20T00:28:41;13.48;;;8.98;;
22024;SDS011;11176;51.448;6.650;2022-08-20T00:31:09;15.70;;;9.23;;
22024;SDS011;11176;51.448;6.650;2022-08-20T00:33:38;15.48;;;9.32;;
22024;SDS011;11176;51.448;6.650;2022-08-20T00:36:05;15.65;;;9.88;;
22024;SDS011;11176;51.448;6.650;2022-08-20T00:38:35;14.90;;;9.57;;
22024;SDS011;11176;51.448;6.650;2022-08-20T00:41:06;14.98;;;8.98;;
22024;SDS011;11176;51.448;6.650;2022-08-20T00:43:51;13.85;;;8.70;;
22024;SDS011;11176;51.448;6.650;2022-08-20T00:46:29;19.35;;;9.43;;
22024;SDS011;11176;51.448;6.650;2022-08-20T00:48:57;14.90;;;9.27;;
22024;SDS011;11176;51.448;6.650;2022-08-20T00:51:36;15.07;;;8.90;;
22024;SDS011;11176;51.448;6.650;2022-08-20T00:54:14;13.45;;;8.10;;
22024;SDS011;11176;51.448;6.650;2022-08-20T00:56:44;13.15;;;8.70;;
22024;SDS011;11176;51.448;6.650;2022-08-20T00:59:15;12.52;;;8.68;;
22024;SDS011;11176;51.448;6.650;2022-08-20T01:01:46;14.93;;;9.25;;
22024;SDS011;11176;51.448;6.650;2022-08-20T01:04:22;16.25;;;8.88;;
22024;SDS011;11176;51.448;6.650;2022-08-20T01:06:50;11.48;;;7.53;;
22024;SDS011;11176;51.448;6.650;2022-08-20T01:09:17;14.18;;;9.35;;
22024;SDS011;11176;51.448;6.650;2022-08-20T01:12:05;11.85;;;7.63;;
22024;SDS011;11176;51.448;6.650;2022-08-20T01:14:32;11.25;;;7.55;;
22024;SDS011;11176;51.448;6.650;2022-08-20T01:17:00;11.75;;;7.78;;
22024;SDS011;11176;51.448;6.650;2022-08-20T01:19:43;10.50;;;7.40;;
22024;SDS011;11176;51.448;6.650;2022-08-20T01:22:20;10.73;;;7.28;;
22024;SDS011;11176;51.448;6.650;2022-08-20T01:25:18;13.93;;;8.40;;
22024;SDS011;11176;51.448;6.650;2022-08-20T01:27:50;12.57;;;7.82;;
22024;SDS011;11176;51.448;6.650;2022-08-20T01:30:21;11.73;;;7.70;;
22024;SDS011;11176;51.448;6.650;2022-08-20T01:32:49;11.48;;;7.22;;
22024;SDS011;11176;51.448;6.650;2022-08-20T01:35:20;10.60;;;7.05;;
22024;SDS011;11176;51.448;6.650;2022-08-20T01:37:47;15.88;;;8.68;;
22024;SDS011;11176;51.448;6.650;2022-08-20T01:40:15;12.25;;;8.98;;
22024;SDS011;11176;51.448;6.650;2022-08-20T01:42:46;13.25;;;9.15;;
22024;SDS011;11176;51.448;6.650;2022-08-20T01:45:24;18.88;;;9.82;;
22024;SDS011;11176;51.448;6.650;2022-08-20T01:47:55;13.00;;;8.95;;
22024;SDS011;11176;51.448;6.650;2022-08-20T01:50:23;13.98;;;8.77;;
22024;SDS011;11176;51.448;6.650;2022-08-20T01:55:43;13.60;;;9.20;;
22024;SDS011;11176;51.448;6.650;2022-08-20T01:58:10;14.15;;;9.48;;
22024;SDS011;11176;51.448;6.650;2022-08-20T02:00:37;14.27;;;8.95;;
22024;SDS011;11176;51.448;6.650;2022-08-20T02:03:03;12.15;;;9.25;;
22024;SDS011;11176;51.448;6.650;2022-08-20T02:05:30;13.65;;;8.93;;
22024;SDS011;11176;51.448;6.650;2022-08-20T02:07:58;15.07;;;9.27;;
22024;SDS011;11176;51.448;6.650;2022-08-20T02:10:25;11.13;;;8.52;;
22024;SDS011;11176;51.448;6.650;2022-08-20T02:12:57;11.20;;;8.27;;
22024;SDS011;11176;51.448;6.650;2022-08-20T02:15:25;12.68;;;8.55;;
22024;SDS011;11176;51.448;6.650;2022-08-20T02:18:06;12.15;;;7.75;;
22024;SDS011;11176;51.448;6.650;2022-08-20T02:20:35;9.13;;;6.85;;
22024;SDS011;11176;51.448;6.650;2022-08-20T02:23:02;11.23;;;7.85;;
22024;SDS011;11176;51.448;6.650;2022-08-20T02:25:30;11.60;;;7.70;;
22024;SDS011;11176;51.448;6.650;2022-08-20T02:28:06;12.73;;;7.68;;
22024;SDS011;11176;51.448;6.650;2022-08-20T02:30:37;12.23;;;8.30;;
22024;SDS011;11176;51.448;6.650;2022-08-20T02:33:08;11.93;;;7.88;;
22024;SDS011;11176;51.448;6.650;2022-08-20T02:35:36;11.20;;;7.88;;
22024;SDS011;11176;51.448;6.650;2022-08-20T02:38:05;12.23;;;8.13;;
22024;SDS011;11176;51.448;6.650;2022-08-20T02:40:31;12.57;;;8.18;;
22024;SDS011;11176;51.448;6.650;2022-08-20T02:42:58;11.75;;;7.90;;
22024;SDS011;11176;51.448;6.650;2022-08-20T02:45:27;11.48;;;8.15;;
22024;SDS011;11176;51.448;6.650;2022-08-20T02:47:54;13.35;;;8.77;;
22024;SDS011;11176;51.448;6.650;2022-08-20T02:50:24;15.02;;;8.88;;
22024;SDS011;11176;51.448;6.650;2022-08-20T02:52:51;13.23;;;7.43;;
22024;SDS011;11176;51.448;6.650;2022-08-20T02:55:18;12.73;;;8.48;;
22024;SDS011;11176;51.448;6.650;2022-08-20T02:57:56;12.55;;;8.95;;
22024;SDS011;11176;51.448;6.650;2022-08-20T03:00:25;11.73;;;8.52;;
22024;SDS011;11176;51.448;6.650;2022-08-20T03:02:56;15.10;;;9.70;;
22024;SDS011;11176;51.448;6.650;2022-08-20T03:05:22;12.20;;;8.45;;
22024;SDS011;11176;51.448;6.650;2022-08-20T03:07:50;11.60;;;8.30;;
22024;SDS011;11176;51.448;6.650;2022-08-20T03:10:23;12.70;;;8.75;;
22024;SDS011;11176;51.448;6.650;2022-08-20T03:12:55;12.50;;;8.98;;
22024;SDS011;11176;51.448;6.650;2022-08-20T03:15:24;15.15;;;10.48;;
22024;SDS011;11176;51.448;6.650;2022-08-20T03:17:51;15.73;;;10.60;;
22024;SDS011;11176;51.448;6.650;2022-08-20T03:20:18;14.32;;;9.70;;
22024;SDS011;11176;51.448;6.650;2022-08-20T03:22:49;13.63;;;9.75;;
22024;SDS011;11176;51.448;6.650;2022-08-20T03:25:16;13.82;;;9.35;;
22024;SDS011;11176;51.448;6.650;2022-08-20T03:27:43;14.98;;;10.13;;
22024;SDS011;11176;51.448;6.650;2022-08-20T03:30:11;15.93;;;10.57;;
22024;SDS011;11176;51.448;6.650;2022-08-20T03:32:40;17.92;;;10.73;;
22024;SDS011;11176;51.448;6.650;2022-08-20T03:35:08;13.50;;;10.15;;
22024;SDS011;11176;51.448;6.650;2022-08-20T03:37:37;14.40;;;10.52;;
22024;SDS011;11176;51.448;6.650;2022-08-20T03:40:11;18.20;;;11.10;;
22024;SDS011;11176;51.448;6.650;2022-08-20T03:42:41;16.08;;;10.75;;
22024;SDS011;11176;51.448;6.650;2022-08-20T03:45:09;16.23;;;10.50;;
22024;SDS011;11176;51.448;6.650;2022-08-20T03:47:40;13.35;;;10.02;;
22024;SDS011;11176;51.448;6.650;2022-08-20T03:50:08;15.70;;;10.10;;
22024;SDS011;11176;51.448;6.650;2022-08-20T03:52:44;13.77;;;9.68;;
22024;SDS011;11176;51.448;6.650;2022-08-20T03:55:11;15.02;;;10.07;;
22024;SDS011;11176;51.448;6.650;2022-08-20T03:57:45;15.57;;;10.38;;
22024;SDS011;11176;51.448;6.650;2022-08-20T04:00:14;12.52;;;9.45;;
22024;SDS011;11176;51.448;6.650;2022-08-20T04:02:45;12.82;;;8.75;;
22024;SDS011;11176;51.448;6.650;2022-08-20T04:05:12;12.27;;;9.63;;
22024;SDS011;11176;51.448;6.650;2022-08-20T04:07:39;14.85;;;8.95;;
22024;SDS011;11176;51.448;6.650;2022-08-20T04:10:07;14.15;;;9.52;;
22024;SDS011;11176;51.448;6.650;2022-08-20T04:12:35;14.43;;;9.18;;
22024;SDS011;11176;51.448;6.650;2022-08-20T04:15:15;17.60;;;10.40;;
22024;SDS011;11176;51.448;6.650;2022-08-20T04:17:45;15.18;;;10.30;;
22024;SDS011;11176;51.448;6.650;2022-08-20T04:20:15;15.07;;;10.02;;
22024;SDS011;11176;51.448;6.650;2022-08-20T04:22:44;17.65;;;11.27;;
22024;SDS011;11176;51.448;6.650;2022-08-20T04:25:24;13.88;;;9.90;;
22024;SDS011;11176;51.448;6.650;2022-08-20T04:27:54;12.68;;;8.95;;
22024;SDS011;11176;51.448;6.650;2022-08-20T04:30:21;14.40;;;10.07;;
22024;SDS011;11176;51.448;6.650;2022-08-20T04:32:48;14.95;;;9.82;;
22024;SDS011;11176;51.448;6.650;2022-08-20T04:35:15;16.05;;;10.18;;
22024;SDS011;11176;51.448;6.650;2022-08-20T04:37:44;15.30;;;9.75;;
22024;SDS011;11176;51.448;6.650;2022-08-20T04:40:14;14.55;;;9.38;;
22024;SDS011;11176;51.448;6.650;2022-08-20T04:43:02;15.27;;;9.70;;
22024;SDS011;11176;51.448;6.650;2022-08-20T04:45:33;12.52;;;8.93;;
22024;SDS011;11176;51.448;6.650;2022-08-20T04:48:03;14.60;;;10.23;;
22024;SDS011;11176;51.448;6.650;2022-08-20T04:50:31;14.95;;;9.43;;
22024;SDS011;11176;51.448;6.650;2022-08-20T04:53:02;18.00;;;10.95;;
22024;SDS011;11176;51.448;6.650;2022-08-20T04:55:31;13.68;;;9.90;;
22024;SDS011;11176;51.448;6.650;2022-08-20T04:58:03;16.95;;;10.57;;
22024;SDS011;11176;51.448;6.650;2022-08-20T05:00:31;16.08;;;11.68;;
22024;SDS011;11176;51.448;6.650;2022-08-20T05:02:58;16.83;;;11.23;;
22024;SDS011;11176;51.448;6.650;2022-08-20T05:05:25;16.00;;;10.55;;
22024;SDS011;11176;51.448;6.650;2022-08-20T05:07:52;17.70;;;11.18;;
22024;SDS011;11176;51.448;6.650;2022-08-20T05:10:20;16.25;;;11.80;;
22024;SDS011;11176;51.448;6.650;2022-08-20T05:12:48;17.05;;;11.77;;
22024;SDS011;11176;51.448;6.650;2022-08-20T05:15:22;17.90;;;12.52;;
22024;SDS011;11176;51.448;6.650;2022-08-20T05:17:54;19.00;;;12.57;;
22024;SDS011;11176;51.448;6.650;2022-08-20T05:20:25;17.73;;;11.93;;
22024;SDS011;11176;51.448;6.650;2022-08-20T05:22:57;18.48;;;12.85;;
22024;SDS011;11176;51.448;6.650;2022-08-20T05:25:24;18.27;;;12.18;;
22024;SDS011;11176;51.448;6.650;2022-08-20T05:27:55;17.45;;;12.30;;
22024;SDS011;11176;51.448;6.650;2022-08-20T05:30:27;18.98;;;12.55;;
22024;SDS011;11176;51.448;6.650;2022-08-20T05:32:59;16.38;;;11.60;;
22024;SDS011;11176;51.448;6.650;2022-08-20T05:35:27;16.95;;;11.35;;
22024;SDS011;11176;51.448;6.650;2022-08-20T05:37:54;17.77;;;12.80;;
22024;SDS011;11176;51.448;6.650;2022-08-20T05:40:20;19.52;;;12.70;;
22024;SDS011;11176;51.448;6.650;2022-08-20T05:42:48;18.40;;;12.43;;
22024;SDS011;11176;51.448;6.650;2022-08-20T05:45:14;19.23;;;11.57;;
22024;SDS011;11176;51.448;6.650;2022-08-20T05:47:42;17.23;;;11.60;;
22024;SDS011;11176;51.448;6.650;2022-08-20T05:50:11;18.75;;;11.95;;
22024;SDS011;11176;51.448;6.650;2022-08-20T05:52:48;19.40;;;12.57;;
22024;SDS011;11176;51.448;6.650;2022-08-20T05:55:15;19.77;;;13.02;;
22024;SDS011;11176;51.448;6.650;2022-08-20T05:57:41;19.73;;;12.68;;
22024;SDS011;11176;51.448;6.650;2022-08-20T06:00:09;19.05;;;12.23;;
22024;SDS011;11176;51.448;6.650;2022-08-20T06:02:37;18.85;;;11.45;;
22024;SDS011;11176;51.448;6.650;2022-08-20T06:05:23;17.90;;;12.18;;
22024;SDS011;11176;51.448;6.650;2022-08-20T06:07:51;17.75;;;12.07;;
22024;SDS011;11176;51.448;6.650;2022-08-20T06:10:21;19.83;;;12.93;;
22024;SDS011;11176;51.448;6.650;2022-08-20T06:12:47;19.35;;;13.25;;
22024;SDS011;11176;51.448;6.650;2022-08-20T06:15:14;19.98;;;12.35;;
22024;SDS011;11176;51.448;6.650;2022-08-20T06:17:40;22.25;;;15.32;;
22024;SDS011;11176;51.448;6.650;2022-08-20T06:20:07;20.05;;;13.10;;
22024;SDS011;11176;51.448;6.650;2022-08-20T06:22:35;19.73;;;13.80;;
22024;SDS011;11176;51.448;6.650;2022-08-20T06:25:01;20.30;;;13.68;;
22024;SDS011;11176;51.448;6.650;2022-08-20T06:27:29;19.65;;;14.00;;
22024;SDS011;11176;51.448;6.650;2022-08-20T06:29:56;22.30;;;15.45;;
22024;SDS011;11176;51.448;6.650;2022-08-20T06:32:23;17.75;;;13.00;;
22024;SDS011;11176;51.448;6.650;2022-08-20T06:34:58;23.73;;;15.07;;
22024;SDS011;11176;51.448;6.650;2022-08-20T06:37:28;20.65;;;13.98;;
22024;SDS011;11176;51.448;6.650;2022-08-20T06:40:11;19.58;;;13.02;;
22024;SDS011;11176;51.448;6.650;2022-08-20T06:42:39;17.60;;;11.98;;
22024;SDS011;11176;51.448;6.650;2022-08-20T06:45:15;21.45;;;13.93;;
22024;SDS011;11176;51.448;6.650;2022-08-20T06:47:44;15.20;;;11.85;;
22024;SDS011;11176;51.448;6.650;2022-08-20T06:50:20;16.15;;;12.23;;
22024;SDS011;11176;51.448;6.650;2022-08-20T06:52:48;18.00;;;12.00;;
22024;SDS011;11176;51.448;6.650;2022-08-20T06:55:18;16.20;;;10.77;;
22024;SDS011;11176;51.448;6.650;2022-08-20T06:57:46;17.95;;;12.40;;
22024;SDS011;11176;51.448;6.650;2022-08-20T07:00:15;13.88;;;10.32;;
22024;SDS011;11176;51.448;6.650;2022-08-20T07:02:44;17.20;;;10.38;;
22024;SDS011;11176;51.448;6.650;2022-08-20T07:05:13;19.35;;;10.68;;
22024;SDS011;11176;51.448;6.650;2022-08-20T07:07:45;15.43;;;10.30;;
22024;SDS011;11176;51.448;6.650;2022-08-20T07:10:14;15.07;;;10.70;;
22024;SDS011;11176;51.448;6.650;2022-08-20T07:12:42;15.50;;;11.82;;
22024;SDS011;11176;51.448;6.650;2022-08-20T07:15:09;16.02;;;10.82;;
22024;SDS011;11176;51.448;6.650;2022-08-20T07:17:37;16.92;;;11.85;;
22024;SDS011;11176;51.448;6.650;2022-08-20T07:20:05;15.95;;;11.90;;
22024;SDS011;11176;51.448;6.650;2022-08-20T07:22:39;17.20;;;12.27;;
22024;SDS011;11176;51.448;6.650;2022-08-20T07:25:07;18.00;;;12.23;;
22024;SDS011;11176;51.448;6.650;2022-08-20T07:27:36;18.25;;;11.43;;
22024;SDS011;11176;51.448;6.650;2022-08-20T07:30:05;20.95;;;13.80;;
22024;SDS011;11176;51.448;6.650;2022-08-20T07:32:52;18.85;;;13.63;;
22024;SDS011;11176;51.448;6.650;2022-08-20T07:35:19;22.25;;;15.65;;
22024;SDS011;11176;51.448;6.650;2022-08-20T07:37:47;28.80;;;18.42;;
22024;SDS011;11176;51.448;6.650;2022-08-20T07:40:16;33.10;;;20.83;;
22024;SDS011;11176;51.448;6.650;2022-08-20T07:42:51;29.92;;;20.50;;
22024;SDS011;11176;51.448;6.650;2022-08-20T07:45:26;31.45;;;20.77;;
22024;SDS011;11176;51.448;6.650;2022-08-20T07:47:53;30.48;;;21.55;;
22024;SDS011;11176;51.448;6.650;2022-08-20T07:50:22;29.48;;;21.20;;
22024;SDS011;11176;51.448;6.650;2022-08-20T07:52:50;36.40;;;24.85;;
22024;SDS011;11176;51.448;6.650;2022-08-20T07:55:18;34.33;;;22.63;;
22024;SDS011;11176;51.448;6.650;2022-08-20T07:57:47;31.42;;;22.65;;
22024;SDS011;11176;51.448;6.650;2022-08-20T08:00:16;30.48;;;22.17;;
22024;SDS011;11176;51.448;6.650;2022-08-20T08:02:44;29.15;;;21.90;;
22024;SDS011;11176;51.448;6.650;2022-08-20T08:05:10;34.63;;;23.55;;
22024;SDS011;11176;51.448;6.650;2022-08-20T08:07:37;32.28;;;22.27;;
22024;SDS011;11176;51.448;6.650;2022-08-20T08:10:08;30.00;;;20.65;;
22024;SDS011;11176;51.448;6.650;2022-08-20T08:12:39;29.40;;;20.30;;
22024;SDS011;11176;51.448;6.650;2022-08-20T08:15:10;29.63;;;20.15;;
22024;SDS011;11176;51.448;6.650;2022-08-20T08:17:40;27.30;;;19.40;;
22024;SDS011;11176;51.448;6.650;2022-08-20T08:20:09;29.00;;;20.17;;
22024;SDS011;11176;51.448;6.650;2022-08-20T08:22:37;30.40;;;20.75;;
22024;SDS011;11176;51.448;6.650;2022-08-20T08:25:09;28.15;;;19.27;;
22024;SDS011;11176;51.448;6.650;2022-08-20T08:27:36;27.20;;;18.23;;
22024;SDS011;11176;51.448;6.650;2022-08-20T08:30:03;40.72;;;22.17;;
22024;SDS011;11176;51.448;6.650;2022-08-20T08:32:30;33.50;;;21.15;;
22024;SDS011;11176;51.448;6.650;2022-08-20T08:34:57;32.83;;;19.77;;
22024;SDS011;11176;51.448;6.650;2022-08-20T08:37:27;31.60;;;18.92;;
22024;SDS011;11176;51.448;6.650;2022-08-20T08:39:56;31.45;;;17.90;;
22024;SDS011;11176;51.448;6.650;2022-08-20T08:42:32;28.65;;;18.95;;
22024;SDS011;11176;51.448;6.650;2022-08-20T08:45:06;27.27;;;17.38;;
22024;SDS011;11176;51.448;6.650;2022-08-20T08:47:36;26.33;;;17.60;;
22024;SDS011;11176;51.448;6.650;2022-08-20T08:50:06;30.63;;;19.65;;
22024;SDS011;11176;51.448;6.650;2022-08-20T08:52:39;27.38;;;17.25;;
22024;SDS011;11176;51.448;6.650;2022-08-20T08:55:08;28.17;;;16.45;;
22024;SDS011;11176;51.448;6.650;2022-08-20T08:57:40;27.48;;;16.98;;
22024;SDS011;11176;51.448;6.650;2022-08-20T09:00:08;24.88;;;17.42;;
22024;SDS011;11176;51.448;6.650;2022-08-20T09:02:51;29.00;;;16.38;;
22024;SDS011;11176;51.448;6.650;2022-08-20T09:08:09;25.10;;;15.70;;
22024;SDS011;11176;51.448;6.650;2022-08-20T09:10:42;25.27;;;15.30;;
22024;SDS011;11176;51.448;6.650;2022-08-20T09:13:10;23.40;;;15.93;;
22024;SDS011;11176;51.448;6.650;2022-08-20T09:15:37;22.85;;;14.70;;
22024;SDS011;11176;51.448;6.650;2022-08-20T09:18:03;22.13;;;14.50;;
22024;SDS011;11176;51.448;6.650;2022-08-20T09:20:30;21.63;;;13.95;;
22024;SDS011;11176;51.448;6.650;2022-08-20T09:22:56;26.83;;;16.70;;
22024;SDS011;11176;51.448;6.650;2022-08-20T09:25:23;20.83;;;14.20;;
22024;SDS011;11176;51.448;6.650;2022-08-20T09:27:50;22.40;;;14.88;;
22024;SDS011;11176;51.448;6.650;2022-08-20T09:30:16;20.77;;;13.43;;
22024;SDS011;11176;51.448;6.650;2022-08-20T09:32:43;18.33;;;13.30;;
22024;SDS011;11176;51.448;6.650;2022-08-20T09:35:10;26.70;;;15.82;;
22024;SDS011;11176;51.448;6.650;2022-08-20T09:37:38;25.10;;;14.15;;
22024;SDS011;11176;51.448;6.650;2022-08-20T09:40:05;26.88;;;15.82;;
22024;SDS011;11176;51.448;6.650;2022-08-20T09:42:34;24.95;;;14.68;;
22024;SDS011;11176;51.448;6.650;2022-08-20T09:45:07;27.90;;;14.32;;
22024;SDS011;11176;51.448;6.650;2022-08-20T09:47:36;23.80;;;14.05;;
22024;SDS011;11176;51.448;6.650;2022-08-20T09:50:06;26.35;;;16.00;;
22024;SDS011;11176;51.448;6.650;2022-08-20T09:52:35;28.48;;;16.02;;
22024;SDS011;11176;51.448;6.650;2022-08-20T09:57:55;24.98;;;13.80;;
22024;SDS011;11176;51.448;6.650;2022-08-20T10:00:22;28.65;;;17.48;;
22024;SDS011;11176;51.448;6.650;2022-08-20T10:02:49;30.83;;;16.23;;
22024;SDS011;11176;51.448;6.650;2022-08-20T10:05:15;22.05;;;13.82;;
22024;SDS011;11176;51.448;6.650;2022-08-20T10:07:42;22.10;;;13.68;;
22024;SDS011;11176;51.448;6.650;2022-08-20T10:10:10;21.75;;;13.27;;
22024;SDS011;11176;51.448;6.650;2022-08-20T10:12:39;24.70;;;13.15;;
22024;SDS011;11176;51.448;6.650;2022-08-20T10:15:07;20.38;;;13.13;;
22024;SDS011;11176;51.448;6.650;2022-08-20T10:17:38;23.05;;;14.48;;
22024;SDS011;11176;51.448;6.650;2022-08-20T10:20:06;24.42;;;15.23;;
22024;SDS011;11176;51.448;6.650;2022-08-20T10:22:34;20.83;;;14.25;;
22024;SDS011;11176;51.448;6.650;2022-08-20T10:25:01;23.60;;;14.55;;
22024;SDS011;11176;51.448;6.650;2022-08-20T10:27:27;25.75;;;15.63;;
22024;SDS011;11176;51.448;6.650;2022-08-20T10:29:54;20.33;;;13.20;;
22024;SDS011;11176;51.448;6.650;2022-08-20T10:32:20;18.90;;;13.60;;
22024;SDS011;11176;51.448;6.650;2022-08-20T10:34:46;22.13;;;13.38;;
22024;SDS011;11176;51.448;6.650;2022-08-20T10:37:15;20.58;;;12.98;;
22024;SDS011;11176;51.448;6.650;2022-08-20T10:39:43;23.33;;;14.48;;
22024;SDS011;11176;51.448;6.650;2022-08-20T10:42:10;27.25;;;13.68;;
22024;SDS011;11176;51.448;6.650;2022-08-20T10:44:37;25.63;;;14.95;;
22024;SDS011;11176;51.448;6.650;2022-08-20T10:47:23;26.17;;;16.63;;
22024;SDS011;11176;51.448;6.650;2022-08-20T10:49:56;22.42;;;15.07;;
22024;SDS011;11176;51.448;6.650;2022-08-20T10:52:24;21.60;;;12.85;;
22024;SDS011;11176;51.448;6.650;2022-08-20T10:54:51;28.33;;;17.65;;
22024;SDS011;11176;51.448;6.650;2022-08-20T10:57:20;21.10;;;13.95;;
22024;SDS011;11176;51.448;6.650;2022-08-20T10:59:54;24.80;;;15.38;;
22024;SDS011;11176;51.448;6.650;2022-08-20T11:02:22;21.35;;;15.05;;
22024;SDS011;11176;51.448;6.650;2022-08-20T11:04:49;20.77;;;13.75;;
22024;SDS011;11176;51.448;6.650;2022-08-20T11:07:18;21.10;;;14.30;;
22024;SDS011;11176;51.448;6.650;2022-08-20T11:10:19;20.05;;;13.27;;
22024;SDS011;11176;51.448;6.650;2022-08-20T11:12:46;17.73;;;11.90;;
22024;SDS011;11176;51.448;6.650;2022-08-20T11:15:13;21.67;;;13.52;;
22024;SDS011;11176;51.448;6.650;2022-08-20T11:17:42;25.73;;;16.75;;
22024;SDS011;11176;51.448;6.650;2022-08-20T11:20:10;21.23;;;14.63;;
22024;SDS011;11176;51.448;6.650;2022-08-20T11:22:38;19.25;;;13.27;;
22024;SDS011;11176;51.448;6.650;2022-08-20T11:25:05;19.08;;;11.68;;
22024;SDS011;11176;51.448;6.650;2022-08-20T11:27:39;25.23;;;14.95;;
22024;SDS011;11176;51.448;6.650;2022-08-20T11:30:08;20.15;;;12.30;;
22024;SDS011;11176;51.448;6.650;2022-08-20T11:32:37;17.67;;;10.32;;
22024;SDS011;11176;51.448;6.650;2022-08-20T11:35:04;16.52;;;11.18;;
22024;SDS011;11176;51.448;6.650;2022-08-20T11:37:51;19.95;;;11.82;;
22024;SDS011;11176;51.448;6.650;2022-08-20T11:40:19;17.00;;;9.48;;
22024;SDS011;11176;51.448;6.650;2022-08-20T11:42:46;15.15;;;9.13;;
22024;SDS011;11176;51.448;6.650;2022-08-20T11:45:32;17.80;;;10.18;;
22024;SDS011;11176;51.448;6.650;2022-08-20T11:48:03;21.40;;;9.98;;
22024;SDS011;11176;51.448;6.650;2022-08-20T11:50:29;18.98;;;10.85;;
22024;SDS011;11176;51.448;6.650;2022-08-20T11:52:56;20.23;;;12.52;;
22024;SDS011;11176;51.448;6.650;2022-08-20T11:55:23;13.80;;;9.07;;
22024;SDS011;11176;51.448;6.650;2022-08-20T11:57:56;14.75;;;8.48;;
22024;SDS011;11176;51.448;6.650;2022-08-20T12:00:26;15.80;;;8.93;;
22024;SDS011;11176;51.448;6.650;2022-08-20T12:03:02;14.85;;;8.10;;
22024;SDS011;11176;51.448;6.650;2022-08-20T12:05:34;16.50;;;10.43;;
22024;SDS011;11176;51.448;6.650;2022-08-20T12:08:12;15.15;;;8.63;;
22024;SDS011;11176;51.448;6.650;2022-08-20T12:10:55;13.40;;;7.63;;
22024;SDS011;11176;51.448;6.650;2022-08-20T12:13:22;13.27;;;7.63;;
22024;SDS011;11176;51.448;6.650;2022-08-20T12:16:09;11.57;;;6.70;;
22024;SDS011;11176;51.448;6.650;2022-08-20T12:18:35;15.13;;;8.35;;
22024;SDS011;11176;51.448;6.650;2022-08-20T12:21:02;15.75;;;6.88;;
22024;SDS011;11176;51.448;6.650;2022-08-20T12:23:28;12.15;;;6.30;;
22024;SDS011;11176;51.448;6.650;2022-08-20T12:25:55;13.02;;;7.50;;
22024;SDS011;11176;51.448;6.650;2022-08-20T12:28:24;11.40;;;6.18;;
22024;SDS011;11176;51.448;6.650;2022-08-20T12:30:51;10.75;;;6.05;;
22024;SDS011;11176;51.448;6.650;2022-08-20T12:33:17;7.70;;;5.60;;
22024;SDS011;11176;51.448;6.650;2022-08-20T12:35:44;11.65;;;6.32;;
22024;SDS011;11176;51.448;6.650;2022-08-20T12:38:10;12.52;;;7.40;;
22024;SDS011;11176;51.448;6.650;2022-08-20T12:40:37;12.25;;;6.47;;
22024;SDS011;11176;51.448;6.650;2022-08-20T12:43:04;8.57;;;4.57;;
22024;SDS011;11176;51.448;6.650;2022-08-20T12:45:31;9.88;;;4.28;;
22024;SDS011;11176;51.448;6.650;2022-08-20T12:47:59;6.35;;;2.80;;
22024;SDS011;11176;51.448;6.650;2022-08-20T12:50:37;9.32;;;3.50;;
22024;SDS011;11176;51.448;6.650;2022-08-20T12:53:04;8.55;;;2.60;;
22024;SDS011;11176;51.448;6.650;2022-08-20T12:55:31;7.85;;;2.85;;
22024;SDS011;11176;51.448;6.650;2022-08-20T12:57:58;9.73;;;4.03;;
22024;SDS011;11176;51.448;6.650;2022-08-20T13:00:48;7.40;;;3.85;;
22024;SDS011;11176;51.448;6.650;2022-08-20T13:03:16;7.95;;;3.88;;
22024;SDS011;11176;51.448;6.650;2022-08-20T13:05:43;9.38;;;3.42;;
22024;SDS011;11176;51.448;6.650;2022-08-20T13:08:10;8.23;;;3.42;;
22024;SDS011;11176;51.448;6.650;2022-08-20T13:10:38;11.15;;;3.30;;
22024;SDS011;11176;51.448;6.650;2022-08-20T13:13:10;7.22;;;3.15;;
22024;SDS011;11176;51.448;6.650;2022-08-20T13:15:37;11.93;;;3.63;;
22024;SDS011;11176;51.448;6.650;2022-08-20T13:18:05;6.70;;;2.20;;
22024;SDS011;11176;51.448;6.650;2022-08-20T13:20:32;6.78;;;2.42;;
22024;SDS011;11176;51.448;6.650;2022-08-20T13:23:00;8.93;;;2.50;;
22024;SDS011;11176;51.448;6.650;2022-08-20T13:25:28;5.95;;;2.25;;
22024;SDS011;11176;51.448;6.650;2022-08-20T13:27:58;10.70;;;2.70;;
22024;SDS011;11176;51.448;6.650;2022-08-20T13:30:26;6.05;;;2.15;;
22024;SDS011;11176;51.448;6.650;2022-08-20T13:32:52;7.53;;;2.45;;
22024;SDS011;11176;51.448;6.650;2022-08-20T13:35:19;5.95;;;2.45;;
22024;SDS011;11176;51.448;6.650;2022-08-20T13:37:46;9.20;;;2.55;;
22024;SDS011;11176;51.448;6.650;2022-08-20T13:40:14;8.57;;;2.35;;
22024;SDS011;11176;51.448;6.650;2022-08-20T13:42:40;8.27;;;2.22;;
22024;SDS011;11176;51.448;6.650;2022-08-20T13:45:07;6.25;;;2.25;;
22024;SDS011;11176;51.448;6.650;2022-08-20T13:47:35;5.88;;;2.00;;
22024;SDS011;11176;51.448;6.650;2022-08-20T13:50:05;4.40;;;1.90;;
22024;SDS011;11176;51.448;6.650;2022-08-20T13:52:33;6.38;;;2.00;;
22024;SDS011;11176;51.448;6.650;2022-08-20T13:55:00;7.97;;;2.20;;
22024;SDS011;11176;51.448;6.650;2022-08-20T13:57:31;5.05;;;1.75;;
22024;SDS011;11176;51.448;6.650;2022-08-20T13:59:58;7.45;;;2.13;;
22024;SDS011;11176;51.448;6.650;2022-08-20T14:02:25;4.38;;;1.90;;
22024;SDS011;11176;51.448;6.650;2022-08-20T14:04:52;5.72;;;1.88;;
22024;SDS011;11176;51.448;6.650;2022-08-20T14:07:28;5.22;;;1.92;;
22024;SDS011;11176;51.448;6.650;2022-08-20T14:10:18;5.25;;;2.10;;
22024;SDS011;11176;51.448;6.650;2022-08-20T14:12:49;5.68;;;1.95;;
22024;SDS011;11176;51.448;6.650;2022-08-20T14:15:16;6.03;;;1.77;;
22024;SDS011;11176;51.448;6.650;2022-08-20T14:17:50;4.45;;;1.60;;
22024;SDS011;11176;51.448;6.650;2022-08-20T14:20:19;8.68;;;1.95;;
22024;SDS011;11176;51.448;6.650;2022-08-20T14:22:47;7.47;;;1.60;;
22024;SDS011;11176;51.448;6.650;2022-08-20T14:25:15;5.93;;;1.67;;
22024;SDS011;11176;51.448;6.650;2022-08-20T14:27:43;7.32;;;1.67;;
22024;SDS011;11176;51.448;6.650;2022-08-20T14:30:16;7.85;;;2.13;;
22024;SDS011;11176;51.448;6.650;2022-08-20T14:32:44;9.45;;;2.15;;
22024;SDS011;11176;51.448;6.650;2022-08-20T14:35:11;8.63;;;1.90;;
22024;SDS011;11176;51.448;6.650;2022-08-20T14:37:40;5.05;;;1.90;;
22024;SDS011;11176;51.448;6.650;2022-08-20T14:40:10;6.90;;;1.60;;
22024;SDS011;11176;51.448;6.650;2022-08-20T14:42:38;5.15;;;1.70;;
22024;SDS011;11176;51.448;6.650;2022-08-20T14:45:08;6.65;;;1.70;;
22024;SDS011;11176;51.448;6.650;2022-08-20T14:47:38;6.47;;;1.75;;
22024;SDS011;11176;51.448;6.650;2022-08-20T14:50:08;4.13;;;1.63;;
22024;SDS011;11176;51.448;6.650;2022-08-20T14:52:37;4.68;;;1.50;;
22024;SDS011;11176;51.448;6.650;2022-08-20T14:55:05;5.93;;;1.60;;
22024;SDS011;11176;51.448;6.650;2022-08-20T14:57:33;4.88;;;1.75;;